Time;durP1;ratioP1;P1;durP2;ratioP2;P2;SDS_P1;SDS_P2;PMS_P1;PMS_P2;Temp;Humidity;BMP_temperature;BMP_pressure;BME280_temperature;BME280_humidity;BME280_pressure;Samples;Min_cycle;Max_cycle;Signal;HPM_P1;HPM_P2
2023/08/05 00:11:43;;;;;;;;;;;;;;;17.58;79.48;99762.94;1075963;54;20684;-84
2023/08/05 00:12:51;;;;;;;;;;;;;;;17.55;80.42;99765.19;1088250;47;19942;-86
2023/08/05 02:42:49;;;;;;;;;;;;;;;16.61;82.39;99699.59;1088292;39;20962;-84
2023/08/05 02:44:39;;;;;;;;;;;;;;;;;;;;;
2023/08/05 02:51:46;;;;;;;;;;;;;;;16.63;82.46;99667.88;1088409;54;19938;-87
2023/08/05 03:17:09;;;;;;;;;;;;;;;;;;;;;
2023/08/05 03:46:18;;;;;;;;;;;;;;;16.31;82.77;99751.78;1087274;47;20259;-84
2023/08/05 03:47:25;;;;;;;;;;;;;;;16.30;82.63;99747.44;1087309;54;19947;-85
2023/08/05 04:19:22;;;;;;;;;;;;;;;16.08;83.71;99786.97;1087787;47;20750;-84
2023/08/05 04:20:27;;;;;;;;;;;;;;;16.03;83.63;99779.47;1088177;46;19942;-84
2023/08/05 04:35:59;;;;;;;;;;;;;;;16.02;83.39;99783.19;1087496;54;20714;-84
2023/08/05 04:52:48;;;;;;;;;;;;;;;16.32;81.67;99780.44;1088123;54;20694;-83
2023/08/05 04:53:50;;;;;;;;;;;;;;;16.33;81.67;99776.72;1090807;39;20757;-83
2023/08/05 04:54:53;;;;;;;;;;;;;;;16.35;81.51;99779.22;1087975;47;19927;-83
2023/08/05 04:55:55;;;;;;;;;;;;;;;16.38;81.40;99787.78;1088065;47;19939;-84
2023/08/05 05:01:38;;;;;;;;;;;;;;;16.29;81.47;99788.91;1087864;54;19998;-84
2023/08/05 05:11:03;;;;;;;;;;;;;;;16.17;81.69;99793.09;1087835;47;19939;-83
2023/08/05 05:12:09;;;;;;;;;;;;;;;16.20;81.59;99806.22;1087600;47;19931;-83
2023/08/05 05:13:13;;;;;;;;;;;;;;;16.22;81.54;99804.19;1087741;47;19938;-83
2023/08/05 05:14:14;;;;;;;;;;;;;;;16.24;81.68;99807.53;1087636;47;19923;-83
2023/08/05 05:15:20;;;;;;;;;;;;;;;16.31;81.32;99797.66;1087441;47;19930;-83
2023/08/05 05:16:21;;;;;;;;;;;;;;;16.36;81.35;99795.22;1087634;54;20029;-82
2023/08/05 05:17:22;;;;;;;;;;;;;;;16.38;81.09;99795.88;1087512;47;19945;-83
2023/08/05 05:18:26;;;;;;;;;;;;;;;16.37;80.87;99796.06;1087549;47;19942;-83
2023/08/05 05:19:27;;;;;;;;;;;;;;;16.44;80.97;99790.72;1087609;54;19994;-84
2023/08/05 05:20:31;;;;;;;;;;;;;;;16.47;80.64;99784.97;1087577;47;19939;-83
2023/08/05 05:21:33;;;;;;;;;;;;;;;16.48;80.36;99783.94;1087555;47;19970;-83
2023/08/05 05:22:43;;;;;;;;;;;;;;;16.49;80.24;99783.72;1087648;47;19965;-83
2023/08/05 05:23:50;;;;;;;;;;;;;;;16.52;80.06;99793.34;1087629;54;19942;-83
2023/08/05 05:24:56;;;;;;;;;;;;;;;16.54;79.87;99785.88;1087524;47;20022;-84
2023/08/05 05:25:57;;;;;;;;;;;;;;;16.54;80.12;99793.97;1087549;47;19931;-82
2023/08/05 05:26:58;;;;;;;;;;;;;;;16.55;79.72;99787.53;1087631;54;19954;-82
2023/08/05 05:28:16;;;;;;;;;;;;;;;16.59;79.92;99794.25;1087556;47;19934;-83
2023/08/05 05:29:33;;;;;;;;;;;;;;;16.44;79.99;99790.72;1087593;47;19942;-85
2023/08/05 05:30:44;;;;;;;;;;;;;;;16.49;79.55;99791.00;1087623;54;19942;-83
2023/08/05 05:31:45;;;;;;;;;;;;;;;16.56;79.92;99791.09;1087474;47;19939;-84
2023/08/05 05:32:51;;;;;;;;;;;;;;;16.60;79.74;99778.88;1087408;54;20025;-83
2023/08/05 05:34:08;;;;;;;;;;;;;;;16.53;79.56;99792.31;1087473;54;19947;-83
2023/08/05 05:35:37;;;;;;;;;;;;;;;;;;;;;
2023/08/05 05:40:54;;;;;;;;;;;;;;;16.73;79.04;99781.72;1087544;54;19931;-84
2023/08/05 05:41:55;;;;;;;;;;;;;;;16.74;78.81;99786.09;1087770;47;19923;-82
2023/08/05 05:43:02;;;;;;;;;;;;;;;16.61;78.64;99786.78;1087802;54;19971;-83
2023/08/05 05:44:06;;;;;;;;;;;;;;;16.51;78.93;99788.97;1087965;54;19951;-85
2023/08/05 05:45:17;;;;;;;;;;;;;;;16.48;78.83;99792.03;1087919;54;20763;-84
2023/08/05 05:46:26;;;;;;;;;;;;;;;16.52;78.86;99787.94;1091794;39;20564;-83
2023/08/05 05:47:29;;;;;;;;;;;;;;;16.50;78.71;99787.28;1087800;47;19963;-83
2023/08/05 05:48:36;;;;;;;;;;;;;;;16.42;78.84;99787.41;1087713;54;19935;-84
2023/08/05 05:49:49;;;;;;;;;;;;;;;16.41;79.00;99791.94;1087961;54;19931;-84
2023/08/05 05:50:51;;;;;;;;;;;;;;;16.44;78.95;99788.88;1087833;47;19930;-85
2023/08/05 05:51:59;;;;;;;;;;;;;;;16.48;78.70;99789.34;1087508;47;19968;-84
2023/08/05 05:53:08;;;;;;;;;;;;;;;16.52;78.57;99786.06;1087734;47;19991;-84
2023/08/05 05:54:11;;;;;;;;;;;;;;;16.57;78.72;99780.09;1087967;47;19946;-84
2023/08/05 05:55:13;;;;;;;;;;;;;;;16.63;78.52;99779.31;1088081;46;19960;-84
2023/08/05 05:56:18;;;;;;;;;;;;;;;16.63;78.64;99775.81;1095741;39;20762;-83
2023/08/05 14:36:39;;;;;;;;;;;;;;;24.77;36.64;99274.50;1086741;54;20006;-90
2023/08/05 14:37:41;;;;;;;;;;;;;;;24.64;36.92;99263.09;1087530;47;19942;-89
2023/08/05 14:38:44;;;;;;;;;;;;;;;24.62;37.04;99266.09;1087769;54;19942;-88
2023/08/05 14:39:45;;;;;;;;;;;;;;;24.66;36.84;99259.03;1087572;47;19990;-89
2023/08/05 14:40:48;;;;;;;;;;;;;;;24.59;36.97;99266.63;1088083;47;19946;-86
2023/08/05 14:41:49;;;;;;;;;;;;;;;24.56;37.01;99262.50;1087923;47;19942;-88
2023/08/05 15:16:23;;;;;;;;;;;;;;;26.43;32.62;99223.63;1088137;54;19939;-87
2023/08/05 15:17:23;;;;;;;;;;;;;;;26.25;33.02;99219.47;1087665;47;19943;-87
2023/08/05 15:18:27;;;;;;;;;;;;;;;26.30;33.03;99228.50;1087796;46;19973;-85
2023/08/05 15:19:28;;;;;;;;;;;;;;;26.22;33.04;99222.72;1087641;47;19943;-88
2023/08/05 15:20:31;;;;;;;;;;;;;;;26.15;32.92;99228.47;1087756;47;19942;-87
2023/08/05 15:21:32;;;;;;;;;;;;;;;25.86;33.68;99223.38;1087756;54;19998;-85
2023/08/05 15:22:35;;;;;;;;;;;;;;;25.61;34.43;99224.88;1087982;54;19949;-89
2023/08/05 15:23:37;;;;;;;;;;;;;;;25.76;33.99;99224.13;1087695;54;19950;-88
2023/08/05 15:24:40;;;;;;;;;;;;;;;25.66;34.33;99221.34;1087981;54;19934;-88
2023/08/05 15:25:46;;;;;;;;;;;;;;;25.87;33.80;99222.28;1087507;46;19939;-87
2023/08/05 15:26:47;;;;;;;;;;;;;;;25.99;33.99;99214.66;1087694;54;19939;-87
2023/08/05 15:46:54;;;;;;;;;;;;;;;25.64;34.22;99207.94;1087733;54;19942;-91
2023/08/05 23:06:49;;;;;;;;;;;;;;;16.56;83.87;99093.13;1088380;54;19934;-85
2023/08/05 23:07:50;;;;;;;;;;;;;;;16.60;83.51;99097.09;1088584;54;19931;-87
2023/08/05 23:08:55;;;;;;;;;;;;;;;16.63;82.90;99098.53;1088264;47;19995;-85
2023/08/05 23:09:56;;;;;;;;;;;;;;;16.66;83.55;99090.03;1088276;46;19939;-85
2023/08/05 23:11:00;;;;;;;;;;;;;;;16.68;83.56;99091.47;1088253;47;19930;-87
2023/08/05 23:12:17;;;;;;;;;;;;;;;16.71;83.00;99089.41;1088217;46;19946;-87
2023/08/05 23:13:20;;;;;;;;;;;;;;;16.72;82.94;99085.66;1088202;47;19923;-87
2023/08/05 23:14:22;;;;;;;;;;;;;;;16.70;83.46;99083.16;1088172;54;19934;-85
2023/08/05 23:15:25;;;;;;;;;;;;;;;16.68;83.57;99086.06;1088247;54;19975;-86
2023/08/05 23:16:34;;;;;;;;;;;;;;;16.69;83.32;99089.59;1088247;54;19927;-86
2023/08/05 23:17:38;;;;;;;;;;;;;;;16.72;82.69;99083.78;1088271;46;19934;-86
2023/08/05 23:18:42;;;;;;;;;;;;;;;16.72;82.58;99080.28;1088245;54;19987;-85
2023/08/05 23:19:46;;;;;;;;;;;;;;;16.73;82.80;99087.31;1088070;47;19923;-87
2023/08/05 23:21:01;;;;;;;;;;;;;;;16.75;82.21;99079.84;1088166;47;19970;-85
2023/08/05 23:22:05;;;;;;;;;;;;;;;16.76;82.42;99079.66;1088244;46;19981;-85
2023/08/05 23:23:09;;;;;;;;;;;;;;;16.77;82.21;99088.56;1088335;54;19943;-86
2023/08/05 23:24:10;;;;;;;;;;;;;;;16.79;81.95;99086.50;1088114;47;19942;-86
2023/08/05 23:25:13;;;;;;;;;;;;;;;16.81;82.01;99089.81;1088086;47;19949;-86
2023/08/05 23:26:14;;;;;;;;;;;;;;;16.79;82.26;99086.50;1088299;46;19923;-87
2023/08/05 23:27:18;;;;;;;;;;;;;;;16.80;82.33;99086.28;1088167;54;19943;-87
2023/08/05 23:28:19;;;;;;;;;;;;;;;16.84;82.27;99089.38;1088264;54;20886;-86
2023/08/05 23:29:35;;;;;;;;;;;;;;;16.87;81.64;99086.28;1088169;47;19938;-86
2023/08/05 23:32:23;;;;;;;;;;;;;;;16.91;82.27;99090.19;1088175;47;19934;-87
2023/08/05 23:47:25;;;;;;;;;;;;;;;16.93;81.95;99076.50;1087884;54;21273;-87
